Time;durP1;ratioP1;P1;durP2;ratioP2;P2;SDS_P1;SDS_P2;PMS_P1;PMS_P2;Temp;Humidity;BMP_temperature;BMP_pressure;BME280_temperature;BME280_humidity;BME280_pressure;Samples;Min_cycle;Max_cycle;Signal;HPM_P1;HPM_P2
2022/03/22 00:02:05;;;;;;;23.08;13.43;;;;;;;;;;5072901;28;20047;-70
2022/03/22 00:04:33;;;;;;;24.17;13.40;;;;;;;;;;5072529;28;20487;-70
2022/03/22 00:07:09;;;;;;;24.65;13.65;;;;;;;;;;5072751;28;20044;-70
2022/03/22 00:09:42;;;;;;;22.17;13.25;;;;;;;;;;5072837;28;20048;-71
2022/03/22 00:12:19;;;;;;;23.38;14.02;;;;;;;;;;5072510;28;20501;-70
2022/03/22 00:14:48;;;;;;;24.73;12.52;;;;;;;;;;5072129;28;20040;-69
2022/03/22 00:17:36;;;;;;;24.38;12.52;;;;;;;;;;5074995;28;20043;-69
2022/03/22 00:20:28;;;;;;;23.80;13.40;;;;;;;;;;5058054;28;20414;-69
2022/03/22 00:23:00;;;;;;;24.25;14.05;;;;;;;;;;5075975;28;20410;-69
2022/03/22 00:25:35;;;;;;;24.65;13.18;;;;;;;;;;5076158;28;20540;-69
2022/03/22 00:28:05;;;;;;;23.92;13.23;;;;;;;;;;5076022;28;20067;-70
2022/03/22 00:30:35;;;;;;;24.70;13.10;;;;;;;;;;5075864;28;20041;-69
2022/03/22 00:33:09;;;;;;;23.85;13.52;;;;;;;;;;5076381;28;20384;-70
2022/03/22 00:35:43;;;;;;;22.70;13.50;;;;;;;;;;5076041;28;20045;-69
2022/03/22 00:38:12;;;;;;;24.52;12.80;;;;;;;;;;5075730;28;20042;-69
2022/03/22 00:40:44;;;;;;;22.00;13.10;;;;;;;;;;5075640;28;20040;-69
2022/03/22 00:43:15;;;;;;;20.63;12.90;;;;;;;;;;5076127;28;20406;-69
2022/03/22 00:45:43;;;;;;;19.90;12.35;;;;;;;;;;5075864;28;20064;-69
2022/03/22 00:48:20;;;;;;;21.67;12.57;;;;;;;;;;5075616;28;20040;-69
2022/03/22 00:50:51;;;;;;;19.63;12.40;;;;;;;;;;5075530;28;20041;-69
2022/03/22 00:53:19;;;;;;;24.02;12.55;;;;;;;;;;5075673;28;20128;-70
2022/03/22 00:55:50;;;;;;;20.95;13.10;;;;;;;;;;5076066;28;20047;-69
2022/03/22 00:58:20;;;;;;;19.88;11.68;;;;;;;;;;5075310;28;20051;-69
2022/03/22 01:00:48;;;;;;;20.88;12.50;;;;;;;;;;5075420;28;20034;-69
2022/03/22 01:03:20;;;;;;;21.90;11.98;;;;;;;;;;5075716;28;20067;-69
2022/03/22 01:05:54;;;;;;;19.33;11.30;;;;;;;;;;5075466;28;20097;-69
2022/03/22 01:08:23;;;;;;;19.65;11.23;;;;;;;;;;5057289;28;20471;-69
2022/03/22 01:10:57;;;;;;;22.92;11.63;;;;;;;;;;5075625;28;20044;-69
2022/03/22 01:13:28;;;;;;;18.92;11.43;;;;;;;;;;5075171;28;20040;-70
2022/03/22 01:15:57;;;;;;;17.55;11.00;;;;;;;;;;5075196;28;20499;-69
2022/03/22 01:18:25;;;;;;;19.85;11.18;;;;;;;;;;5074323;28;20116;-70
2022/03/22 01:20:56;;;;;;;14.75;10.18;;;;;;;;;;5074962;28;20448;-69
2022/03/22 01:23:26;;;;;;;17.52;10.95;;;;;;;;;;5075533;28;20114;-69
2022/03/22 01:25:57;;;;;;;15.88;9.98;;;;;;;;;;5074954;28;20052;-69
2022/03/22 01:28:27;;;;;;;17.20;10.15;;;;;;;;;;5074106;28;20051;-69
2022/03/22 01:30:56;;;;;;;17.02;10.55;;;;;;;;;;5074938;28;20052;-69
2022/03/22 01:33:30;;;;;;;17.92;9.63;;;;;;;;;;5074713;28;20051;-69
2022/03/22 01:36:01;;;;;;;16.50;9.53;;;;;;;;;;5074681;28;20041;-70
2022/03/22 01:38:29;;;;;;;16.83;10.13;;;;;;;;;;5074732;28;20674;-69
2022/03/22 01:41:00;;;;;;;16.35;10.18;;;;;;;;;;5074578;28;20043;-69
2022/03/22 01:43:28;;;;;;;18.23;9.98;;;;;;;;;;5074652;28;20071;-69
2022/03/22 01:45:55;;;;;;;14.77;9.52;;;;;;;;;;5074462;28;20123;-69
2022/03/22 01:48:24;;;;;;;14.70;8.95;;;;;;;;;;5074184;28;20441;-69
2022/03/22 01:50:54;;;;;;;16.15;9.82;;;;;;;;;;5074537;28;20491;-70
2022/03/22 01:53:24;;;;;;;15.88;10.13;;;;;;;;;;5074522;28;20040;-71
2022/03/22 01:55:54;;;;;;;16.33;10.02;;;;;;;;;;5074325;28;20119;-70
2022/03/22 01:58:24;;;;;;;18.55;11.15;;;;;;;;;;5074363;28;20094;-71
2022/03/22 02:05:51;;;;;;;22.80;12.30;;;;;;;;;;5074580;28;20037;-70
2022/03/22 02:06:40;;;;;;;21.38;12.05;;;;;;;;;;5074391;28;20094;-71
2022/03/22 02:09:13;;;;;;;25.75;12.75;;;;;;;;;;5074133;28;20115;-71
2022/03/22 02:11:42;;;;;;;23.58;12.85;;;;;;;;;;5073981;28;20052;-71
2022/03/22 02:14:11;;;;;;;22.42;12.95;;;;;;;;;;5074216;28;20115;-71
2022/03/22 02:16:39;;;;;;;20.27;12.20;;;;;;;;;;5073449;28;20041;-71
2022/03/22 02:19:09;;;;;;;21.73;11.50;;;;;;;;;;5073249;28;20049;-71
2022/03/22 02:21:40;;;;;;;21.48;12.00;;;;;;;;;;5073976;28;20123;-70
2022/03/22 02:24:10;;;;;;;23.55;12.82;;;;;;;;;;5073780;28;20068;-71
2022/03/22 02:26:38;;;;;;;16.48;10.98;;;;;;;;;;5073683;28;20090;-71
2022/03/22 02:29:07;;;;;;;17.77;11.15;;;;;;;;;;5074080;28;20455;-71
2022/03/22 02:31:38;;;;;;;20.00;11.52;;;;;;;;;;5073650;28;20040;-70
2022/03/22 02:34:11;;;;;;;18.40;11.40;;;;;;;;;;5073959;28;20067;-71
2022/03/22 02:36:39;;;;;;;19.63;11.80;;;;;;;;;;5073867;28;20048;-70
2022/03/22 02:39:32;;;;;;;20.20;11.70;;;;;;;;;;5073387;28;20502;-71
2022/03/22 02:42:24;;;;;;;19.83;11.80;;;;;;;;;;5073826;28;20066;-71
2022/03/22 02:45:20;;;;;;;19.27;12.13;;;;;;;;;;5073455;28;20036;-70
2022/03/22 02:48:15;;;;;;;22.02;12.73;;;;;;;;;;5073746;28;20085;-71
2022/03/22 02:50:43;;;;;;;23.40;13.25;;;;;;;;;;5073307;28;20037;-69
2022/03/22 02:53:11;;;;;;;22.45;13.35;;;;;;;;;;5073309;28;20043;-69
2022/03/22 02:55:48;;;;;;;19.27;12.40;;;;;;;;;;5073477;28;20056;-69
2022/03/22 02:58:41;;;;;;;22.35;13.35;;;;;;;;;;5073530;28;20064;-69
2022/03/22 03:04:29;;;;;;;21.80;12.48;;;;;;;;;;4992635;28;20500;-69
2022/03/22 03:06:56;;;;;;;22.40;12.48;;;;;;;;;;4994130;28;20049;-70
2022/03/22 03:09:27;;;;;;;19.42;12.23;;;;;;;;;;4993485;28;20046;-70
2022/03/22 03:11:55;;;;;;;25.20;12.70;;;;;;;;;;4994309;28;20038;-70
2022/03/22 03:14:38;;;;;;;21.80;12.13;;;;;;;;;;4993592;28;20042;-70
2022/03/22 03:17:09;;;;;;;19.17;11.98;;;;;;;;;;4992594;28;20038;-70
2022/03/22 03:19:41;;;;;;;19.98;11.88;;;;;;;;;;4993858;28;20035;-70
2022/03/22 03:22:14;;;;;;;22.00;12.30;;;;;;;;;;4993200;28;20030;-70
2022/03/22 03:24:45;;;;;;;20.00;11.70;;;;;;;;;;4993376;28;20073;-70
2022/03/22 03:27:15;;;;;;;25.05;12.45;;;;;;;;;;4993472;28;20101;-70
2022/03/22 03:29:45;;;;;;;20.45;12.52;;;;;;;;;;4993854;28;20047;-70
2022/03/22 03:32:18;;;;;;;20.02;11.75;;;;;;;;;;4993532;28;20080;-70
2022/03/22 03:34:47;;;;;;;21.10;12.05;;;;;;;;;;4993261;28;20038;-70
2022/03/22 03:37:17;;;;;;;18.50;11.57;;;;;;;;;;4993704;28;20050;-70
2022/03/22 03:39:55;;;;;;;20.20;12.25;;;;;;;;;;4993707;28;20062;-69
2022/03/22 03:42:42;;;;;;;20.08;12.10;;;;;;;;;;4993200;28;20130;-69
2022/03/22 03:47:59;;;;;;;19.73;11.32;;;;;;;;;;4993068;28;20048;-69
2022/03/22 03:50:37;;;;;;;24.55;12.98;;;;;;;;;;4993886;28;20046;-69
2022/03/22 03:53:04;;;;;;;18.85;11.55;;;;;;;;;;4996688;28;20042;-69
2022/03/22 03:55:31;;;;;;;25.90;14.15;;;;;;;;;;4996861;28;20046;-70
2022/03/22 03:58:04;;;;;;;20.25;12.25;;;;;;;;;;4997764;28;20117;-71
2022/03/22 04:00:32;;;;;;;20.83;12.23;;;;;;;;;;4996957;28;20045;-70
2022/03/22 04:03:06;;;;;;;20.77;12.60;;;;;;;;;;5058230;23;20053;-69
2022/03/22 04:05:34;;;;;;;20.97;12.37;;;;;;;;;;5056491;28;20048;-68
2022/03/22 04:08:06;;;;;;;22.45;13.18;;;;;;;;;;5056213;28;20356;-69
2022/03/22 04:10:41;;;;;;;22.52;13.60;;;;;;;;;;5038358;28;20041;-68
2022/03/22 04:13:13;;;;;;;24.30;13.00;;;;;;;;;;5056385;28;20040;-68
2022/03/22 04:15:41;;;;;;;25.58;13.00;;;;;;;;;;5055250;28;20515;-68
2022/03/22 04:18:14;;;;;;;23.58;12.85;;;;;;;;;;5056114;28;20184;-69
2022/03/22 04:20:49;;;;;;;28.08;13.10;;;;;;;;;;5056534;28;20041;-68
2022/03/22 04:23:18;;;;;;;;;;;;;;;;;;5056406;28;20041;-68
2022/03/22 04:25:46;;;;;;;22.92;12.52;;;;;;;;;;5055295;28;19936;-69
2022/03/22 04:33:56;;;;;;;22.65;12.75;;;;;;;;;;5055900;28;20057;-69
2022/03/22 04:36:24;;;;;;;22.55;12.98;;;;;;;;;;5055562;28;20115;-70
2022/03/22 04:42:07;;;;;;;23.27;14.10;;;;;;;;;;5055621;28;20120;-69
2022/03/22 04:45:04;;;;;;;23.50;13.30;;;;;;;;;;5054100;28;20047;-70
2022/03/22 04:47:32;;;;;;;26.02;13.80;;;;;;;;;;5055612;28;20049;-70
2022/03/22 04:50:06;;;;;;;24.38;13.80;;;;;;;;;;5055465;28;20045;-70
2022/03/22 04:58:10;;;;;;;25.17;14.75;;;;;;;;;;5035044;28;20111;-70
2022/03/22 05:00:37;;;;;;;26.80;14.13;;;;;;;;;;5033981;28;20036;-70
2022/03/22 05:03:08;;;;;;;26.88;14.48;;;;;;;;;;5034065;28;20060;-71
2022/03/22 05:08:22;;;;;;;23.60;13.93;;;;;;;;;;5014362;28;20042;-70
2022/03/22 05:10:55;;;;;;;21.40;14.27;;;;;;;;;;5015038;28;20050;-69
2022/03/22 05:13:48;;;;;;;23.27;14.40;;;;;;;;;;5015765;28;20089;-76
2022/03/22 05:16:16;;;;;;;28.42;17.83;;;;;;;;;;5015039;28;20097;-70
2022/03/22 05:18:47;;;;;;;25.52;16.05;;;;;;;;;;5014693;28;20049;-70
2022/03/22 05:21:25;;;;;;;33.22;21.85;;;;;;;;;;5015202;28;20552;-70
2022/03/22 05:31:21;;;;;;;24.27;14.68;;;;;;;;;;5015277;28;20064;-70
2022/03/22 05:34:15;;;;;;;24.58;14.80;;;;;;;;;;5015204;28;20140;-71
2022/03/22 05:36:43;;;;;;;22.35;14.95;;;;;;;;;;5014098;28;20132;-71
2022/03/22 05:39:11;;;;;;;21.92;15.90;;;;;;;;;;5014622;28;20046;-71
2022/03/22 05:41:40;;;;;;;28.00;16.30;;;;;;;;;;5014952;28;20061;-71
2022/03/22 05:44:11;;;;;;;31.58;18.48;;;;;;;;;;5014661;28;20381;-69
2022/03/22 05:46:40;;;;;;;28.52;19.23;;;;;;;;;;5013911;28;20054;-69
2022/03/22 05:52:33;;;;;;;34.72;18.80;;;;;;;;;;5013060;28;20152;-69
2022/03/22 05:55:00;;;;;;;29.33;17.92;;;;;;;;;;5014608;28;20037;-70
2022/03/22 05:57:28;;;;;;;27.80;18.65;;;;;;;;;;5014622;28;20491;-70
2022/03/22 05:59:57;;;;;;;27.45;17.58;;;;;;;;;;5014692;28;20042;-70
2022/03/22 06:02:27;;;;;;;27.85;17.05;;;;;;;;;;5013999;28;20447;-69
2022/03/22 06:04:55;;;;;;;25.27;17.80;;;;;;;;;;5013587;28;20050;-69
2022/03/22 06:07:24;;;;;;;28.48;17.60;;;;;;;;;;5014336;28;20496;-69
2022/03/22 06:09:54;;;;;;;26.45;17.23;;;;;;;;;;5014524;28;20043;-70
2022/03/22 06:12:23;;;;;;;30.25;19.20;;;;;;;;;;5012676;28;20073;-70
2022/03/22 06:15:14;;;;;;;30.38;18.98;;;;;;;;;;5014705;28;20034;-70
2022/03/22 06:17:47;;;;;;;27.23;18.27;;;;;;;;;;5014583;28;20510;-70
2022/03/22 06:20:41;;;;;;;25.98;17.35;;;;;;;;;;5014389;28;20042;-70
2022/03/22 06:23:13;;;;;;;25.90;17.75;;;;;;;;;;5014340;28;20056;-70
2022/03/22 06:25:49;;;;;;;23.10;17.27;;;;;;;;;;5014444;28;20042;-70
2022/03/22 06:28:18;;;;;;;24.45;17.58;;;;;;;;;;5014699;28;20061;-70
2022/03/22 06:30:54;;;;;;;21.55;16.08;;;;;;;;;;4996072;28;20040;-70
2022/03/22 06:33:47;;;;;;;24.25;16.98;;;;;;;;;;5013881;28;20492;-69
2022/03/22 06:36:40;;;;;;;17.80;14.82;;;;;;;;;;5012685;28;20415;-69
2022/03/22 06:39:07;;;;;;;19.17;13.57;;;;;;;;;;5011599;28;20042;-70
2022/03/22 06:41:36;;;;;;;19.15;13.48;;;;;;;;;;5013408;28;20045;-70
2022/03/22 06:44:05;;;;;;;20.27;12.57;;;;;;;;;;5005476;28;20057;-69
2022/03/22 06:46:33;;;;;;;17.67;12.55;;;;;;;;;;5013157;28;20046;-69
2022/03/22 06:49:00;;;;;;;19.40;12.57;;;;;;;;;;5013468;28;20086;-69
2022/03/22 06:51:54;;;;;;;17.95;12.68;;;;;;;;;;5013504;28;20393;-70
2022/03/22 06:54:49;;;;;;;19.58;13.43;;;;;;;;;;5002911;28;20041;-70
2022/03/22 06:57:20;;;;;;;18.20;13.23;;;;;;;;;;5013570;28;20412;-68
2022/03/22 06:59:48;;;;;;;16.83;12.60;;;;;;;;;;5008582;28;20272;-69
2022/03/22 07:02:18;;;;;;;18.58;13.00;;;;;;;;;;5007963;28;20045;-70
2022/03/22 07:04:52;;;;;;;20.20;13.52;;;;;;;;;;5013369;28;20034;-70
2022/03/22 07:07:22;;;;;;;21.15;14.93;;;;;;;;;;5013284;28;20558;-69
2022/03/22 07:09:51;;;;;;;26.23;17.58;;;;;;;;;;5013500;28;20443;-69
2022/03/22 07:12:22;;;;;;;23.58;16.02;;;;;;;;;;5013639;28;20037;-69
2022/03/22 07:14:50;;;;;;;21.83;15.70;;;;;;;;;;5013624;28;20053;-69
2022/03/22 07:17:18;;;;;;;26.20;14.23;;;;;;;;;;5012730;28;20034;-69
2022/03/22 07:19:54;;;;;;;18.58;12.02;;;;;;;;;;5009559;28;20470;-70
2022/03/22 07:22:38;;;;;;;15.10;9.18;;;;;;;;;;5011225;28;20377;-70
2022/03/22 07:25:39;;;;;;;13.13;8.65;;;;;;;;;;5013605;28;20042;-68
2022/03/22 07:32:07;;;;;;;12.82;7.50;;;;;;;;;;5017494;28;20080;-69
2022/03/22 07:38:24;;;;;;;11.98;7.68;;;;;;;;;;5022674;28;20496;-69
2022/03/22 07:40:52;;;;;;;10.95;6.68;;;;;;;;;;5037177;28;20132;-68
2022/03/22 07:43:20;;;;;;;9.82;6.50;;;;;;;;;;5036865;28;20068;-68
2022/03/22 07:45:48;;;;;;;10.25;5.75;;;;;;;;;;5036755;28;20483;-70
2022/03/22 07:48:19;;;;;;;10.95;6.57;;;;;;;;;;5036745;28;20041;-68
2022/03/22 07:53:35;;;;;;;11.13;6.20;;;;;;;;;;5037464;28;20038;-68
2022/03/22 07:56:04;;;;;;;11.93;6.90;;;;;;;;;;5036854;28;20454;-69
2022/03/22 07:58:31;;;;;;;10.98;5.70;;;;;;;;;;5036880;28;20033;-68
2022/03/22 08:00:59;;;;;;;9.55;5.90;;;;;;;;;;5033046;28;20041;-69
2022/03/22 08:03:27;;;;;;;11.07;5.80;;;;;;;;;;5016807;28;20037;-68
2022/03/22 08:05:59;;;;;;;12.30;4.93;;;;;;;;;;5015770;28;20407;-68
2022/03/22 08:08:27;;;;;;;15.68;6.05;;;;;;;;;;5016482;28;20053;-68
2022/03/22 08:11:07;;;;;;;9.88;5.38;;;;;;;;;;5016142;28;20112;-68
2022/03/22 08:13:36;;;;;;;9.00;5.72;;;;;;;;;;5016815;28;20069;-68
2022/03/22 08:16:05;;;;;;;9.25;6.38;;;;;;;;;;5016649;28;20038;-68
2022/03/22 08:18:33;;;;;;;8.73;5.60;;;;;;;;;;5016404;28;20046;-68
2022/03/22 08:21:01;;;;;;;10.52;5.35;;;;;;;;;;5016402;28;20451;-68
2022/03/22 08:23:30;;;;;;;8.15;5.10;;;;;;;;;;5016154;28;20544;-69
2022/03/22 08:26:01;;;;;;;10.60;5.68;;;;;;;;;;5016388;28;20060;-69
2022/03/22 08:28:57;;;;;;;8.45;5.35;;;;;;;;;;5016670;28;20053;-69
2022/03/22 08:31:28;;;;;;;14.38;6.00;;;;;;;;;;5016195;28;20096;-69
2022/03/22 08:33:59;;;;;;;10.35;5.63;;;;;;;;;;5015988;28;20109;-69
2022/03/22 08:36:54;;;;;;;12.13;5.78;;;;;;;;;;5015900;28;20069;-69
2022/03/22 08:39:23;;;;;;;12.90;6.60;;;;;;;;;;5015669;28;20038;-69
2022/03/22 08:41:53;;;;;;;11.30;5.95;;;;;;;;;;5014992;28;20049;-70
2022/03/22 08:44:55;;;;;;;13.10;6.38;;;;;;;;;;5016044;28;20077;-71
2022/03/22 08:47:24;;;;;;;12.65;6.57;;;;;;;;;;5016345;28;20065;-70
2022/03/22 08:49:56;;;;;;;16.38;6.95;;;;;;;;;;5015834;28;20076;-70
2022/03/22 08:52:48;;;;;;;14.18;8.45;;;;;;;;;;5016077;28;20124;-70
2022/03/22 08:55:18;;;;;;;15.27;7.03;;;;;;;;;;5016144;28;20062;-71
2022/03/22 08:57:54;;;;;;;13.75;7.05;;;;;;;;;;5015750;28;20092;-70
2022/03/22 09:00:26;;;;;;;9.95;6.35;;;;;;;;;;5016312;28;20054;-70
2022/03/22 09:02:54;;;;;;;12.73;6.68;;;;;;;;;;5015473;28;20551;-70
2022/03/22 09:08:13;;;;;;;15.50;7.57;;;;;;;;;;5035122;28;20044;-70
2022/03/22 09:10:43;;;;;;;15.30;6.85;;;;;;;;;;5034902;28;20045;-70
2022/03/22 09:13:11;;;;;;;16.65;7.22;;;;;;;;;;5034465;28;20042;-70
2022/03/22 09:15:39;;;;;;;15.25;7.05;;;;;;;;;;5016942;28;20091;-70
2022/03/22 09:18:13;;;;;;;14.70;7.60;;;;;;;;;;5017028;28;20068;-70
2022/03/22 09:20:42;;;;;;;13.63;6.30;;;;;;;;;;5015435;28;20037;-70
2022/03/22 09:23:10;;;;;;;10.63;6.70;;;;;;;;;;5034719;28;20037;-70
2022/03/22 09:25:38;;;;;;;12.02;6.60;;;;;;;;;;5034594;28;20116;-71
2022/03/22 09:28:07;;;;;;;14.93;7.28;;;;;;;;;;5035150;28;20503;-70
2022/03/22 09:30:36;;;;;;;12.57;6.90;;;;;;;;;;5035114;28;20045;-70
2022/03/22 09:33:04;;;;;;;12.15;6.93;;;;;;;;;;5035102;28;20041;-70
2022/03/22 09:35:33;;;;;;;15.65;7.30;;;;;;;;;;5034708;28;20394;-70
2022/03/22 09:38:00;;;;;;;33.15;7.80;;;;;;;;;;5014312;28;20472;-71
2022/03/22 09:40:28;;;;;;;10.40;6.55;;;;;;;;;;5014696;28;20061;-70
2022/03/22 09:43:00;;;;;;;14.65;6.30;;;;;;;;;;5015128;28;20046;-71
2022/03/22 09:45:33;;;;;;;8.70;6.05;;;;;;;;;;5014873;28;20045;-70
2022/03/22 09:48:01;;;;;;;13.40;7.28;;;;;;;;;;5015209;28;20042;-70
2022/03/22 09:53:17;;;;;;;10.73;5.88;;;;;;;;;;5033497;28;20037;-71
2022/03/22 09:55:47;;;;;;;14.90;6.15;;;;;;;;;;5033555;28;20038;-71
2022/03/22 09:58:20;;;;;;;13.60;6.50;;;;;;;;;;5033786;28;20037;-71
2022/03/22 10:00:49;;;;;;;10.65;5.78;;;;;;;;;;5033553;28;20061;-70
2022/03/22 10:03:22;;;;;;;9.38;6.38;;;;;;;;;;5033194;28;20046;-70
2022/03/22 10:05:57;;;;;;;10.32;5.97;;;;;;;;;;5033831;28;20412;-71
2022/03/22 10:08:27;;;;;;;10.45;6.45;;;;;;;;;;5034001;28;20045;-71
2022/03/22 10:10:58;;;;;;;8.30;5.93;;;;;;;;;;5033314;28;20048;-70
2022/03/22 10:13:35;;;;;;;10.50;5.90;;;;;;;;;;5033245;28;20045;-71
2022/03/22 10:16:04;;;;;;;9.57;6.20;;;;;;;;;;5033481;28;20451;-71
2022/03/22 10:18:35;;;;;;;9.60;6.47;;;;;;;;;;5033171;28;20041;-70
2022/03/22 10:21:07;;;;;;;9.38;5.90;;;;;;;;;;5033926;28;20042;-71
2022/03/22 10:23:49;;;;;;;7.55;5.65;;;;;;;;;;5033495;28;20045;-70
2022/03/22 10:26:19;;;;;;;10.60;6.07;;;;;;;;;;5032894;28;20048;-69
2022/03/22 10:28:55;;;;;;;13.88;6.30;;;;;;;;;;5033193;28;20052;-70
2022/03/22 10:31:40;;;;;;;13.13;6.18;;;;;;;;;;5033191;28;20424;-70
2022/03/22 10:34:09;;;;;;;;;;;;;;;;;;5033873;28;20037;-69
2022/03/22 10:36:38;;;;;;;11.30;5.95;;;;;;;;;;5033005;28;19928;-69
2022/03/22 10:39:11;;;;;;;10.90;6.25;;;;;;;;;;5033324;28;20116;-69
2022/03/22 10:41:42;;;;;;;11.75;6.57;;;;;;;;;;5033187;28;20037;-70
2022/03/22 10:44:15;;;;;;;10.00;6.75;;;;;;;;;;5032557;28;20499;-70
2022/03/22 10:46:46;;;;;;;11.15;5.93;;;;;;;;;;5032620;28;20046;-70
2022/03/22 10:49:20;;;;;;;10.48;5.93;;;;;;;;;;5032938;28;20037;-70
2022/03/22 10:52:09;;;;;;;10.27;6.00;;;;;;;;;;4992683;28;1169407;-70
2022/03/22 10:54:38;;;;;;;11.80;5.80;;;;;;;;;;5033344;28;20045;-70
2022/03/22 10:57:13;;;;;;;11.40;6.18;;;;;;;;;;5034041;28;20099;-70
2022/03/22 10:59:41;;;;;;;15.07;5.40;;;;;;;;;;5033659;28;20041;-70
2022/03/22 11:02:11;;;;;;;21.90;6.13;;;;;;;;;;5033307;28;20037;-70
2022/03/22 11:04:44;;;;;;;13.63;5.97;;;;;;;;;;5033624;28;20077;-70
2022/03/22 11:07:17;;;;;;;13.98;6.05;;;;;;;;;;5033386;28;20107;-70
2022/03/22 11:10:10;;;;;;;13.32;5.97;;;;;;;;;;5033162;28;20099;-70
2022/03/22 11:12:39;;;;;;;10.70;5.45;;;;;;;;;;5033199;28;20029;-70
2022/03/22 11:15:07;;;;;;;10.82;5.65;;;;;;;;;;5033212;28;20042;-70
2022/03/22 11:17:35;;;;;;;8.27;5.05;;;;;;;;;;5032929;28;20567;-70
2022/03/22 11:20:06;;;;;;;8.73;5.20;;;;;;;;;;5032864;28;20069;-70
2022/03/22 11:22:49;;;;;;;9.05;5.70;;;;;;;;;;5033373;28;20045;-70
2022/03/22 11:25:28;;;;;;;17.35;5.93;;;;;;;;;;5033303;28;20061;-71
2022/03/22 11:27:59;;;;;;;15.18;4.93;;;;;;;;;;5032974;28;20087;-70
2022/03/22 11:30:28;;;;;;;23.52;4.88;;;;;;;;;;5032817;28;20136;-70
2022/03/22 11:35:52;;;;;;;15.40;4.47;;;;;;;;;;5033202;28;20045;-71
2022/03/22 11:38:39;;;;;;;8.90;4.03;;;;;;;;;;5032690;28;20475;-71
2022/03/22 11:44:22;;;;;;;15.10;4.90;;;;;;;;;;5032821;28;20052;-71
2022/03/22 11:47:11;;;;;;;20.35;4.80;;;;;;;;;;5033145;28;20072;-70
2022/03/22 11:49:49;;;;;;;14.98;4.68;;;;;;;;;;5033193;28;20080;-71
2022/03/22 11:52:18;;;;;;;16.10;4.38;;;;;;;;;;5032681;28;20045;-70
2022/03/22 11:54:54;;;;;;;27.52;5.82;;;;;;;;;;5032512;28;20492;-70
2022/03/22 11:57:24;;;;;;;20.70;4.35;;;;;;;;;;5032870;28;20046;-70
2022/03/22 11:59:56;;;;;;;20.77;5.38;;;;;;;;;;5033072;28;20501;-70
2022/03/22 12:02:30;;;;;;;25.20;4.82;;;;;;;;;;5033210;28;20068;-70
2022/03/22 12:08:07;;;;;;;27.42;5.05;;;;;;;;;;4988649;28;20089;-71
2022/03/22 12:10:35;;;;;;;45.83;5.60;;;;;;;;;;4993045;28;20078;-71
2022/03/22 12:13:03;;;;;;;25.60;4.95;;;;;;;;;;4994850;28;20045;-70
2022/03/22 12:15:37;;;;;;;37.22;5.60;;;;;;;;;;4997035;28;20073;-69
2022/03/22 12:18:08;;;;;;;46.60;6.55;;;;;;;;;;4996970;28;20042;-71
2022/03/22 12:20:36;;;;;;;42.38;6.97;;;;;;;;;;4996402;28;20124;-71
2022/03/22 12:23:06;;;;;;;43.92;7.53;;;;;;;;;;4995611;28;20034;-72
2022/03/22 12:25:36;;;;;;;41.70;5.72;;;;;;;;;;5006832;28;20069;-71
2022/03/22 12:28:09;;;;;;;36.38;5.78;;;;;;;;;;4999155;28;20061;-73
2022/03/22 12:30:37;;;;;;;46.17;6.65;;;;;;;;;;4998992;28;20054;-72
2022/03/22 12:33:18;;;;;;;50.55;8.43;;;;;;;;;;4979054;28;20074;-73
2022/03/22 12:35:50;;;;;;;48.97;7.55;;;;;;;;;;4996615;28;20081;-71
2022/03/22 12:38:18;;;;;;;58.53;8.25;;;;;;;;;;4996743;28;20401;-70
2022/03/22 12:40:49;;;;;;;102.75;12.90;;;;;;;;;;4996901;28;20042;-71
2022/03/22 12:43:31;;;;;;;50.47;8.88;;;;;;;;;;4996472;28;20133;-71
2022/03/22 12:45:58;;;;;;;48.35;7.38;;;;;;;;;;4996434;28;20457;-70
2022/03/22 12:48:30;;;;;;;70.55;8.88;;;;;;;;;;4996350;28;20045;-71
2022/03/22 12:51:04;;;;;;;54.17;9.00;;;;;;;;;;4996320;28;20042;-71
2022/03/22 12:53:33;;;;;;;58.75;9.63;;;;;;;;;;4996193;28;20408;-72
2022/03/22 12:56:02;;;;;;;56.38;8.25;;;;;;;;;;4996025;28;20528;-70
2022/03/22 12:58:31;;;;;;;64.63;7.90;;;;;;;;;;4996394;28;20061;-72
2022/03/22 13:00:59;;;;;;;83.45;10.13;;;;;;;;;;4996321;28;20118;-71
2022/03/22 13:03:29;;;;;;;74.97;10.13;;;;;;;;;;4996203;28;20101;-71
2022/03/22 13:06:04;;;;;;;72.55;8.30;;;;;;;;;;4996055;28;20042;-71
2022/03/22 13:11:26;;;;;;;74.28;9.15;;;;;;;;;;4996011;28;20081;-72
2022/03/22 13:11:29;;;;;;;59.05;8.75;;;;;;;;;;4995876;28;20138;-73
2022/03/22 13:16:54;;;;;;;60.60;8.88;;;;;;;;;;4996009;28;20050;-72
2022/03/22 13:19:23;;;;;;;;;;;;;;;;;;4996110;28;20081;-71
2022/03/22 13:21:53;;;;;;;51.90;8.70;;;;;;;;;;4995743;28;19922;-73
2022/03/22 13:24:24;;;;;;;68.75;8.95;;;;;;;;;;4994637;28;20050;-72
2022/03/22 13:26:54;;;;;;;56.08;9.10;;;;;;;;;;4995394;28;20449;-73
2022/03/22 13:29:25;;;;;;;72.47;9.75;;;;;;;;;;4994786;28;20437;-71
2022/03/22 13:31:55;;;;;;;66.80;9.45;;;;;;;;;;4995452;28;20038;-72
2022/03/22 13:34:24;;;;;;;68.10;8.63;;;;;;;;;;4996144;28;20042;-72
2022/03/22 13:37:02;;;;;;;54.90;8.75;;;;;;;;;;4995749;28;20057;-73
2022/03/22 13:39:31;;;;;;;51.47;6.80;;;;;;;;;;4995541;28;20073;-72
2022/03/22 13:42:25;;;;;;;63.08;8.52;;;;;;;;;;4995463;28;20498;-72
2022/03/22 13:45:00;;;;;;;50.72;7.35;;;;;;;;;;4993114;28;20413;-72
2022/03/22 13:47:30;;;;;;;47.67;6.43;;;;;;;;;;4995366;28;20100;-72
2022/03/22 13:50:01;;;;;;;62.60;8.07;;;;;;;;;;4995200;28;20481;-73
2022/03/22 13:52:31;;;;;;;52.72;6.90;;;;;;;;;;4995019;28;20405;-71
2022/03/22 13:54:59;;;;;;;56.97;8.23;;;;;;;;;;4995196;28;20117;-72
2022/03/22 13:57:39;;;;;;;42.90;8.63;;;;;;;;;;4995131;28;20479;-72
2022/03/22 14:03:10;;;;;;;39.25;6.50;;;;;;;;;;4995372;28;20454;-71
2022/03/22 14:06:00;;;;;;;28.25;5.90;;;;;;;;;;4994462;28;20038;-65
2022/03/22 14:08:30;;;;;;;45.08;7.15;;;;;;;;;;4990999;28;20126;-64
2022/03/22 14:11:23;;;;;;;37.65;6.00;;;;;;;;;;4989501;28;20436;-64
2022/03/22 14:13:55;;;;;;;28.15;5.53;;;;;;;;;;4991988;28;20476;-63
2022/03/22 14:16:23;;;;;;;33.92;6.72;;;;;;;;;;4994675;28;20174;-64
2022/03/22 14:18:50;;;;;;;36.70;4.97;;;;;;;;;;4994989;28;20038;-64
2022/03/22 14:21:24;;;;;;;46.67;5.85;;;;;;;;;;4994665;28;20053;-65
2022/03/22 14:23:52;;;;;;;35.70;5.05;;;;;;;;;;5002361;28;20042;-64
2022/03/22 14:26:20;;;;;;;37.72;5.70;;;;;;;;;;5014622;28;20038;-64
2022/03/22 14:28:49;;;;;;;35.05;5.53;;;;;;;;;;5014341;28;20054;-65
2022/03/22 14:31:19;;;;;;;39.28;4.55;;;;;;;;;;5014382;28;20042;-64
2022/03/22 14:33:55;;;;;;;24.80;3.90;;;;;;;;;;5014480;28;20108;-65
2022/03/22 14:36:49;;;;;;;36.60;4.75;;;;;;;;;;5014077;28;20053;-64
2022/03/22 14:39:17;;;;;;;24.70;4.18;;;;;;;;;;5013963;28;20080;-63
2022/03/22 14:41:45;;;;;;;38.80;5.15;;;;;;;;;;5013926;28;20041;-64
2022/03/22 14:44:13;;;;;;;36.55;5.28;;;;;;;;;;5013719;28;20117;-65
2022/03/22 14:46:42;;;;;;;21.92;4.65;;;;;;;;;;5014592;28;20034;-64
2022/03/22 14:49:14;;;;;;;30.33;7.28;;;;;;;;;;5014200;28;20041;-65
2022/03/22 14:54:39;;;;;;;21.48;3.80;;;;;;;;;;4960485;28;20082;-64
2022/03/22 14:59:57;;;;;;;23.42;4.07;;;;;;;;;;5013558;28;20088;-65
2022/03/22 15:02:26;;;;;;;20.85;3.83;;;;;;;;;;5013737;28;20157;-62
2022/03/22 15:04:56;;;;;;;26.20;5.75;;;;;;;;;;5013615;28;20041;-64
2022/03/22 15:07:24;;;;;;;34.08;5.75;;;;;;;;;;5013029;28;20133;-64
2022/03/22 15:09:52;;;;;;;21.90;5.28;;;;;;;;;;5013551;28;20042;-64
2022/03/22 15:12:20;;;;;;;20.85;4.50;;;;;;;;;;5013317;28;20038;-64
2022/03/22 15:14:49;;;;;;;37.65;8.10;;;;;;;;;;5013806;28;20384;-64
2022/03/22 15:17:18;;;;;;;19.58;5.13;;;;;;;;;;5013534;28;20041;-65
2022/03/22 15:19:47;;;;;;;25.10;5.25;;;;;;;;;;5013436;28;20424;-65
2022/03/22 15:22:14;;;;;;;15.82;4.30;;;;;;;;;;5012918;28;20044;-64
2022/03/22 15:25:07;;;;;;;25.23;5.97;;;;;;;;;;5013407;28;20056;-65
2022/03/22 15:28:00;;;;;;;20.38;5.32;;;;;;;;;;5013080;28;20037;-64
2022/03/22 15:30:28;;;;;;;15.43;4.00;;;;;;;;;;5013806;28;20045;-65
2022/03/22 15:33:14;;;;;;;18.30;4.32;;;;;;;;;;5012794;28;20117;-65
2022/03/22 15:35:42;;;;;;;17.63;4.10;;;;;;;;;;5012995;28;20049;-63
2022/03/22 15:38:11;;;;;;;9.85;3.45;;;;;;;;;;5012501;28;20400;-65
2022/03/22 15:40:39;;;;;;;21.17;3.60;;;;;;;;;;5013123;28;20065;-65
2022/03/22 15:43:08;;;;;;;17.73;4.13;;;;;;;;;;5013541;28;20057;-64
2022/03/22 15:45:37;;;;;;;17.35;4.18;;;;;;;;;;5013322;28;20133;-64
2022/03/22 15:48:05;;;;;;;20.85;4.97;;;;;;;;;;5014862;28;20042;-64
2022/03/22 15:50:33;;;;;;;20.10;5.20;;;;;;;;;;5017212;28;20529;-64
2022/03/22 15:53:04;;;;;;;24.90;3.85;;;;;;;;;;5016635;28;20049;-64
2022/03/22 15:55:32;;;;;;;20.30;3.63;;;;;;;;;;5016860;28;20049;-64
2022/03/22 15:58:00;;;;;;;21.60;3.95;;;;;;;;;;5015746;28;20038;-64
2022/03/22 16:00:29;;;;;;;17.95;4.43;;;;;;;;;;5016653;28;20042;-62
2022/03/22 16:02:58;;;;;;;22.65;4.40;;;;;;;;;;5016765;28;20073;-62
2022/03/22 16:05:26;;;;;;;23.38;3.85;;;;;;;;;;5016660;28;20480;-64
2022/03/22 16:07:55;;;;;;;28.05;4.47;;;;;;;;;;5016291;28;20526;-63
2022/03/22 16:10:24;;;;;;;14.77;3.85;;;;;;;;;;5016527;28;20052;-63
2022/03/22 16:12:51;;;;;;;15.45;5.57;;;;;;;;;;5016634;28;20330;-65